Leveretts Chapel, Texas
Current Conditions -  °F | °C
As of 6:35 PM on Friday 24 Oct 2014 (Local Time) from KRFI Reporting Station
Clear Clear  
Wind Chill: 70°   Ceiling: Unl
Heat Index: 70°   Visibility: 10mi
Dew Point: 60°   Wind: 0mph
Humidity: 72%   Direction: NA
Pressure: 30.12"   Gusts: NA
Location:  32.2818°N, 94.951°W
Report Text: KRFI 242335Z AUTO 00000KT 10SM CLR 21/16 A3012 RMK AO2 T02100158
Loading
Personal Weather Stations






























Interactive Weather Map
Tropical Storm Tracking
New forecast layout! Learn more

10-Day Weather Forecast

Advertisements
Track Severe Weather on mobile